sensor_id;sensor_type;location;lat;lon;timestamp;P1;durP1;ratioP1;P2;durP2;ratioP2
51780;SDS011;37844;57.126;24.288;2023-08-31T00:00:43;11.05;;;5.78;;
51780;SDS011;37844;57.126;24.288;2023-08-31T00:03:27;9.15;;;5.35;;
51780;SDS011;37844;57.126;24.288;2023-08-31T00:06:12;12.73;;;5.80;;
51780;SDS011;37844;57.126;24.288;2023-08-31T00:08:56;14.82;;;6.20;;
51780;SDS011;37844;57.126;24.288;2023-08-31T00:11:40;19.58;;;6.28;;
51780;SDS011;37844;57.126;24.288;2023-08-31T00:14:25;10.23;;;5.53;;
51780;SDS011;37844;57.126;24.288;2023-08-31T00:17:10;11.93;;;6.70;;
51780;SDS011;37844;57.126;24.288;2023-08-31T00:19:54;13.98;;;6.22;;
51780;SDS011;37844;57.126;24.288;2023-08-31T00:22:38;14.43;;;7.10;;
51780;SDS011;37844;57.126;24.288;2023-08-31T00:25:22;12.77;;;5.45;;
51780;SDS011;37844;57.126;24.288;2023-08-31T00:28:07;12.25;;;6.35;;
51780;SDS011;37844;57.126;24.288;2023-08-31T00:30:53;11.35;;;6.15;;
51780;SDS011;37844;57.126;24.288;2023-08-31T00:33:40;10.93;;;5.40;;
51780;SDS011;37844;57.126;24.288;2023-08-31T00:36:24;16.73;;;6.13;;
51780;SDS011;37844;57.126;24.288;2023-08-31T00:39:08;12.98;;;6.57;;
51780;SDS011;37844;57.126;24.288;2023-08-31T00:41:54;15.45;;;7.70;;
51780;SDS011;37844;57.126;24.288;2023-08-31T00:44:38;12.43;;;7.43;;
51780;SDS011;37844;57.126;24.288;2023-08-31T00:47:22;13.68;;;7.65;;
51780;SDS011;37844;57.126;24.288;2023-08-31T00:50:06;15.48;;;7.57;;
51780;SDS011;37844;57.126;24.288;2023-08-31T00:52:51;11.65;;;7.35;;
51780;SDS011;37844;57.126;24.288;2023-08-31T00:55:35;18.88;;;7.82;;
51780;SDS011;37844;57.126;24.288;2023-08-31T00:58:20;20.92;;;8.57;;
51780;SDS011;37844;57.126;24.288;2023-08-31T01:04:00;15.63;;;7.55;;
51780;SDS011;37844;57.126;24.288;2023-08-31T01:15:58;22.02;;;8.25;;
51780;SDS011;37844;57.126;24.288;2023-08-31T01:18:44;13.45;;;8.70;;
51780;SDS011;37844;57.126;24.288;2023-08-31T01:21:33;15.88;;;8.45;;
51780;SDS011;37844;57.126;24.288;2023-08-31T01:24:22;11.13;;;8.05;;
51780;SDS011;37844;57.126;24.288;2023-08-31T01:27:06;21.23;;;8.80;;
51780;SDS011;37844;57.126;24.288;2023-08-31T01:29:51;11.98;;;8.23;;
51780;SDS011;37844;57.126;24.288;2023-08-31T01:32:42;15.80;;;8.15;;
51780;SDS011;37844;57.126;24.288;2023-08-31T01:35:30;11.20;;;8.27;;
51780;SDS011;37844;57.126;24.288;2023-08-31T01:38:25;21.08;;;10.35;;
51780;SDS011;37844;57.126;24.288;2023-08-31T01:41:13;17.23;;;9.27;;
51780;SDS011;37844;57.126;24.288;2023-08-31T01:44:01;17.85;;;9.88;;
51780;SDS011;37844;57.126;24.288;2023-08-31T01:46:46;18.45;;;9.25;;
51780;SDS011;37844;57.126;24.288;2023-08-31T01:49:37;14.82;;;9.02;;
51780;SDS011;37844;57.126;24.288;2023-08-31T01:52:24;14.23;;;8.95;;
51780;SDS011;37844;57.126;24.288;2023-08-31T01:55:08;15.07;;;8.82;;
51780;SDS011;37844;57.126;24.288;2023-08-31T01:57:52;20.60;;;10.70;;
51780;SDS011;37844;57.126;24.288;2023-08-31T02:00:36;15.50;;;8.43;;
51780;SDS011;37844;57.126;24.288;2023-08-31T02:03:22;18.23;;;10.23;;
51780;SDS011;37844;57.126;24.288;2023-08-31T02:06:06;26.50;;;9.25;;
51780;SDS011;37844;57.126;24.288;2023-08-31T02:08:50;23.35;;;10.10;;
51780;SDS011;37844;57.126;24.288;2023-08-31T02:11:34;15.98;;;8.80;;
51780;SDS011;37844;57.126;24.288;2023-08-31T02:14:21;16.38;;;9.70;;
51780;SDS011;37844;57.126;24.288;2023-08-31T02:17:06;18.67;;;10.35;;
51780;SDS011;37844;57.126;24.288;2023-08-31T02:19:50;15.98;;;9.73;;
51780;SDS011;37844;57.126;24.288;2023-08-31T02:22:34;18.85;;;10.98;;
51780;SDS011;37844;57.126;24.288;2023-08-31T02:25:19;17.23;;;9.00;;
51780;SDS011;37844;57.126;24.288;2023-08-31T02:28:03;17.30;;;9.70;;
51780;SDS011;37844;57.126;24.288;2023-08-31T02:30:56;16.48;;;9.45;;
51780;SDS011;37844;57.126;24.288;2023-08-31T02:33:45;14.93;;;8.60;;
51780;SDS011;37844;57.126;24.288;2023-08-31T02:36:30;27.08;;;9.13;;
51780;SDS011;37844;57.126;24.288;2023-08-31T02:39:14;19.05;;;9.40;;
51780;SDS011;37844;57.126;24.288;2023-08-31T02:41:59;16.58;;;10.20;;
51780;SDS011;37844;57.126;24.288;2023-08-31T02:44:43;20.17;;;9.75;;
51780;SDS011;37844;57.126;24.288;2023-08-31T02:47:28;17.55;;;9.27;;
51780;SDS011;37844;57.126;24.288;2023-08-31T02:50:12;23.02;;;11.13;;
51780;SDS011;37844;57.126;24.288;2023-08-31T02:52:56;20.55;;;9.90;;
51780;SDS011;37844;57.126;24.288;2023-08-31T02:55:42;17.65;;;10.75;;
51780;SDS011;37844;57.126;24.288;2023-08-31T02:58:26;26.85;;;9.93;;
51780;SDS011;37844;57.126;24.288;2023-08-31T03:01:10;17.20;;;9.88;;
51780;SDS011;37844;57.126;24.288;2023-08-31T03:03:57;24.05;;;9.40;;
51780;SDS011;37844;57.126;24.288;2023-08-31T03:06:40;22.38;;;9.40;;
51780;SDS011;37844;57.126;24.288;2023-08-31T03:09:24;20.13;;;10.25;;
51780;SDS011;37844;57.126;24.288;2023-08-31T03:12:08;17.92;;;9.98;;
51780;SDS011;37844;57.126;24.288;2023-08-31T03:14:53;20.05;;;9.43;;
51780;SDS011;37844;57.126;24.288;2023-08-31T03:17:37;19.27;;;10.40;;
51780;SDS011;37844;57.126;24.288;2023-08-31T03:20:21;14.32;;;10.35;;
51780;SDS011;37844;57.126;24.288;2023-08-31T03:23:05;25.23;;;9.27;;
51780;SDS011;37844;57.126;24.288;2023-08-31T03:25:49;19.10;;;10.35;;
51780;SDS011;37844;57.126;24.288;2023-08-31T03:28:33;11.88;;;8.27;;
51780;SDS011;37844;57.126;24.288;2023-08-31T03:31:17;17.08;;;10.75;;
51780;SDS011;37844;57.126;24.288;2023-08-31T03:34:01;14.18;;;10.10;;
51780;SDS011;37844;57.126;24.288;2023-08-31T03:36:45;18.90;;;11.27;;
51780;SDS011;37844;57.126;24.288;2023-08-31T03:39:30;23.48;;;9.93;;
51780;SDS011;37844;57.126;24.288;2023-08-31T03:42:14;14.77;;;10.13;;
51780;SDS011;37844;57.126;24.288;2023-08-31T03:44:57;18.77;;;9.80;;
51780;SDS011;37844;57.126;24.288;2023-08-31T03:47:42;15.30;;;9.25;;
51780;SDS011;37844;57.126;24.288;2023-08-31T03:50:25;12.90;;;9.45;;
51780;SDS011;37844;57.126;24.288;2023-08-31T03:53:09;23.77;;;10.48;;
51780;SDS011;37844;57.126;24.288;2023-08-31T03:55:53;20.35;;;10.98;;
51780;SDS011;37844;57.126;24.288;2023-08-31T03:58:37;17.42;;;10.48;;
51780;SDS011;37844;57.126;24.288;2023-08-31T04:01:21;12.98;;;9.90;;
51780;SDS011;37844;57.126;24.288;2023-08-31T04:04:07;18.20;;;8.82;;
51780;SDS011;37844;57.126;24.288;2023-08-31T04:06:51;21.33;;;9.20;;
51780;SDS011;37844;57.126;24.288;2023-08-31T04:09:35;15.95;;;10.10;;
51780;SDS011;37844;57.126;24.288;2023-08-31T04:12:19;14.18;;;9.05;;
51780;SDS011;37844;57.126;24.288;2023-08-31T04:15:03;18.55;;;8.80;;
51780;SDS011;37844;57.126;24.288;2023-08-31T04:17:48;17.75;;;10.45;;
51780;SDS011;37844;57.126;24.288;2023-08-31T04:20:33;15.80;;;9.35;;
51780;SDS011;37844;57.126;24.288;2023-08-31T04:23:20;17.10;;;10.07;;
51780;SDS011;37844;57.126;24.288;2023-08-31T04:26:11;23.10;;;9.95;;
51780;SDS011;37844;57.126;24.288;2023-08-31T04:28:57;14.45;;;9.02;;
51780;SDS011;37844;57.126;24.288;2023-08-31T04:31:41;17.35;;;8.48;;
51780;SDS011;37844;57.126;24.288;2023-08-31T04:34:24;13.90;;;7.78;;
51780;SDS011;37844;57.126;24.288;2023-08-31T04:37:10;15.15;;;8.43;;
51780;SDS011;37844;57.126;24.288;2023-08-31T04:39:54;13.57;;;8.70;;
51780;SDS011;37844;57.126;24.288;2023-08-31T04:42:38;17.77;;;8.98;;
51780;SDS011;37844;57.126;24.288;2023-08-31T04:45:22;19.35;;;8.98;;
51780;SDS011;37844;57.126;24.288;2023-08-31T04:48:06;17.00;;;7.50;;
51780;SDS011;37844;57.126;24.288;2023-08-31T04:50:56;15.40;;;9.32;;
51780;SDS011;37844;57.126;24.288;2023-08-31T04:53:41;15.73;;;8.27;;
51780;SDS011;37844;57.126;24.288;2023-08-31T04:56:28;17.15;;;8.85;;
51780;SDS011;37844;57.126;24.288;2023-08-31T04:59:14;19.33;;;9.68;;
51780;SDS011;37844;57.126;24.288;2023-08-31T05:01:58;12.13;;;7.78;;
51780;SDS011;37844;57.126;24.288;2023-08-31T05:04:42;15.02;;;8.25;;
51780;SDS011;37844;57.126;24.288;2023-08-31T05:07:26;12.80;;;7.10;;
51780;SDS011;37844;57.126;24.288;2023-08-31T05:10:10;26.23;;;9.15;;
51780;SDS011;37844;57.126;24.288;2023-08-31T05:12:54;16.70;;;8.07;;
51780;SDS011;37844;57.126;24.288;2023-08-31T05:15:38;11.38;;;7.55;;
51780;SDS011;37844;57.126;24.288;2023-08-31T05:18:22;10.93;;;6.90;;
51780;SDS011;37844;57.126;24.288;2023-08-31T05:21:06;12.02;;;7.75;;
51780;SDS011;37844;57.126;24.288;2023-08-31T05:23:50;12.70;;;6.30;;
51780;SDS011;37844;57.126;24.288;2023-08-31T05:26:34;9.85;;;6.32;;
51780;SDS011;37844;57.126;24.288;2023-08-31T05:29:18;13.38;;;6.70;;
51780;SDS011;37844;57.126;24.288;2023-08-31T05:32:02;6.70;;;4.75;;
51780;SDS011;37844;57.126;24.288;2023-08-31T05:34:46;8.20;;;5.32;;
51780;SDS011;37844;57.126;24.288;2023-08-31T05:37:33;8.57;;;5.20;;
51780;SDS011;37844;57.126;24.288;2023-08-31T05:40:19;9.80;;;5.47;;
51780;SDS011;37844;57.126;24.288;2023-08-31T05:43:03;12.32;;;6.35;;
51780;SDS011;37844;57.126;24.288;2023-08-31T05:45:48;10.43;;;5.57;;
51780;SDS011;37844;57.126;24.288;2023-08-31T05:48:32;6.50;;;4.03;;
51780;SDS011;37844;57.126;24.288;2023-08-31T05:51:17;7.88;;;4.57;;
51780;SDS011;37844;57.126;24.288;2023-08-31T05:54:01;9.45;;;4.22;;
51780;SDS011;37844;57.126;24.288;2023-08-31T05:56:47;9.48;;;4.72;;
51780;SDS011;37844;57.126;24.288;2023-08-31T05:59:31;8.27;;;4.28;;
51780;SDS011;37844;57.126;24.288;2023-08-31T06:02:15;7.10;;;4.38;;
51780;SDS011;37844;57.126;24.288;2023-08-31T06:04:59;4.28;;;3.08;;
51780;SDS011;37844;57.126;24.288;2023-08-31T06:07:43;10.18;;;3.05;;
51780;SDS011;37844;57.126;24.288;2023-08-31T06:10:27;3.20;;;2.35;;
51780;SDS011;37844;57.126;24.288;2023-08-31T06:13:12;7.80;;;3.10;;
51780;SDS011;37844;57.126;24.288;2023-08-31T06:15:56;16.58;;;3.55;;
51780;SDS011;37844;57.126;24.288;2023-08-31T06:18:41;9.15;;;3.67;;
51780;SDS011;37844;57.126;24.288;2023-08-31T06:21:27;11.95;;;4.00;;
51780;SDS011;37844;57.126;24.288;2023-08-31T06:24:11;21.75;;;5.80;;
51780;SDS011;37844;57.126;24.288;2023-08-31T06:26:56;16.48;;;5.03;;
51780;SDS011;37844;57.126;24.288;2023-08-31T06:29:41;17.15;;;6.07;;
51780;SDS011;37844;57.126;24.288;2023-08-31T06:32:25;14.10;;;4.32;;
51780;SDS011;37844;57.126;24.288;2023-08-31T06:35:09;10.77;;;4.32;;
51780;SDS011;37844;57.126;24.288;2023-08-31T06:37:53;19.35;;;5.22;;
51780;SDS011;37844;57.126;24.288;2023-08-31T06:40:41;26.27;;;5.60;;
51780;SDS011;37844;57.126;24.288;2023-08-31T06:43:26;8.35;;;3.47;;
51780;SDS011;37844;57.126;24.288;2023-08-31T06:46:09;18.38;;;4.55;;
51780;SDS011;37844;57.126;24.288;2023-08-31T06:48:53;14.75;;;4.15;;
51780;SDS011;37844;57.126;24.288;2023-08-31T06:51:38;10.27;;;3.72;;
51780;SDS011;37844;57.126;24.288;2023-08-31T06:54:22;16.23;;;4.50;;
51780;SDS011;37844;57.126;24.288;2023-08-31T06:57:05;8.88;;;3.97;;
51780;SDS011;37844;57.126;24.288;2023-08-31T06:59:50;14.68;;;6.00;;
51780;SDS011;37844;57.126;24.288;2023-08-31T07:02:37;15.50;;;6.80;;
51780;SDS011;37844;57.126;24.288;2023-08-31T07:05:24;12.40;;;6.60;;
51780;SDS011;37844;57.126;24.288;2023-08-31T07:08:10;14.35;;;5.88;;
51780;SDS011;37844;57.126;24.288;2023-08-31T07:10:54;9.95;;;4.05;;
51780;SDS011;37844;57.126;24.288;2023-08-31T07:13:38;11.07;;;5.32;;
51780;SDS011;37844;57.126;24.288;2023-08-31T07:16:22;17.40;;;6.95;;
51780;SDS011;37844;57.126;24.288;2023-08-31T07:19:06;13.75;;;4.07;;
51780;SDS011;37844;57.126;24.288;2023-08-31T07:21:50;19.05;;;4.95;;
51780;SDS011;37844;57.126;24.288;2023-08-31T07:24:33;10.65;;;3.88;;
51780;SDS011;37844;57.126;24.288;2023-08-31T07:27:21;8.25;;;3.90;;
51780;SDS011;37844;57.126;24.288;2023-08-31T07:30:05;7.78;;;3.40;;
51780;SDS011;37844;57.126;24.288;2023-08-31T07:32:49;8.23;;;3.15;;
51780;SDS011;37844;57.126;24.288;2023-08-31T07:35:40;12.27;;;4.55;;
51780;SDS011;37844;57.126;24.288;2023-08-31T07:38:24;5.85;;;3.22;;
51780;SDS011;37844;57.126;24.288;2023-08-31T07:41:09;11.27;;;3.42;;
51780;SDS011;37844;57.126;24.288;2023-08-31T07:43:53;8.20;;;3.30;;
51780;SDS011;37844;57.126;24.288;2023-08-31T07:46:37;6.70;;;2.97;;
51780;SDS011;37844;57.126;24.288;2023-08-31T07:49:21;9.13;;;4.10;;
51780;SDS011;37844;57.126;24.288;2023-08-31T07:52:05;11.10;;;4.10;;
51780;SDS011;37844;57.126;24.288;2023-08-31T07:54:49;6.30;;;3.10;;
51780;SDS011;37844;57.126;24.288;2023-08-31T07:57:33;12.85;;;2.92;;
51780;SDS011;37844;57.126;24.288;2023-08-31T08:00:18;5.93;;;2.55;;
51780;SDS011;37844;57.126;24.288;2023-08-31T08:03:02;8.98;;;3.72;;
51780;SDS011;37844;57.126;24.288;2023-08-31T08:05:47;12.27;;;3.55;;
51780;SDS011;37844;57.126;24.288;2023-08-31T08:08:32;7.50;;;2.55;;
51780;SDS011;37844;57.126;24.288;2023-08-31T08:11:16;6.07;;;2.75;;
51780;SDS011;37844;57.126;24.288;2023-08-31T08:14:00;5.55;;;2.63;;
51780;SDS011;37844;57.126;24.288;2023-08-31T08:16:44;11.30;;;3.47;;
51780;SDS011;37844;57.126;24.288;2023-08-31T08:19:28;8.38;;;3.47;;
51780;SDS011;37844;57.126;24.288;2023-08-31T08:22:12;8.18;;;3.35;;
51780;SDS011;37844;57.126;24.288;2023-08-31T08:24:56;6.65;;;3.72;;
51780;SDS011;37844;57.126;24.288;2023-08-31T08:27:40;5.05;;;2.58;;
51780;SDS011;37844;57.126;24.288;2023-08-31T08:30:24;13.52;;;4.45;;
51780;SDS011;37844;57.126;24.288;2023-08-31T08:33:08;8.95;;;3.50;;
51780;SDS011;37844;57.126;24.288;2023-08-31T08:35:55;8.70;;;2.35;;
51780;SDS011;37844;57.126;24.288;2023-08-31T08:38:40;6.50;;;2.90;;
51780;SDS011;37844;57.126;24.288;2023-08-31T08:41:24;7.75;;;2.65;;
51780;SDS011;37844;57.126;24.288;2023-08-31T08:44:12;5.43;;;2.85;;
51780;SDS011;37844;57.126;24.288;2023-08-31T08:47:00;8.32;;;3.25;;
51780;SDS011;37844;57.126;24.288;2023-08-31T08:49:44;4.97;;;2.65;;
51780;SDS011;37844;57.126;24.288;2023-08-31T08:52:28;5.45;;;2.60;;
51780;SDS011;37844;57.126;24.288;2023-08-31T08:55:13;4.05;;;2.38;;
51780;SDS011;37844;57.126;24.288;2023-08-31T08:57:58;11.63;;;3.70;;
51780;SDS011;37844;57.126;24.288;2023-08-31T09:00:47;3.47;;;2.30;;
51780;SDS011;37844;57.126;24.288;2023-08-31T09:03:32;2.33;;;1.67;;
51780;SDS011;37844;57.126;24.288;2023-08-31T09:06:16;6.55;;;2.67;;
51780;SDS011;37844;57.126;24.288;2023-08-31T09:09:00;4.65;;;2.92;;
51780;SDS011;37844;57.126;24.288;2023-08-31T09:11:47;4.70;;;3.03;;
51780;SDS011;37844;57.126;24.288;2023-08-31T09:14:31;3.25;;;2.30;;
51780;SDS011;37844;57.126;24.288;2023-08-31T09:17:15;3.58;;;2.45;;
51780;SDS011;37844;57.126;24.288;2023-08-31T09:19:59;5.28;;;2.95;;
51780;SDS011;37844;57.126;24.288;2023-08-31T09:22:44;3.72;;;2.30;;
51780;SDS011;37844;57.126;24.288;2023-08-31T09:25:29;5.47;;;2.30;;
51780;SDS011;37844;57.126;24.288;2023-08-31T09:28:13;2.95;;;2.22;;
51780;SDS011;37844;57.126;24.288;2023-08-31T09:31:07;4.97;;;2.28;;
51780;SDS011;37844;57.126;24.288;2023-08-31T09:33:52;6.15;;;2.28;;
51780;SDS011;37844;57.126;24.288;2023-08-31T09:36:37;5.97;;;2.20;;
51780;SDS011;37844;57.126;24.288;2023-08-31T09:39:21;5.07;;;2.50;;
51780;SDS011;37844;57.126;24.288;2023-08-31T09:42:05;6.18;;;2.60;;
51780;SDS011;37844;57.126;24.288;2023-08-31T09:44:50;2.25;;;2.03;;
51780;SDS011;37844;57.126;24.288;2023-08-31T09:47:35;3.47;;;2.20;;
51780;SDS011;37844;57.126;24.288;2023-08-31T09:50:20;2.83;;;2.15;;
51780;SDS011;37844;57.126;24.288;2023-08-31T09:53:06;3.78;;;2.00;;
51780;SDS011;37844;57.126;24.288;2023-08-31T09:55:54;2.55;;;2.08;;
51780;SDS011;37844;57.126;24.288;2023-08-31T09:58:39;3.85;;;2.10;;
51780;SDS011;37844;57.126;24.288;2023-08-31T10:01:23;4.80;;;2.30;;
51780;SDS011;37844;57.126;24.288;2023-08-31T10:04:08;2.13;;;1.70;;
51780;SDS011;37844;57.126;24.288;2023-08-31T10:06:52;4.38;;;2.30;;
51780;SDS011;37844;57.126;24.288;2023-08-31T10:09:37;4.75;;;1.60;;
51780;SDS011;37844;57.126;24.288;2023-08-31T10:12:27;1.90;;;1.70;;
51780;SDS011;37844;57.126;24.288;2023-08-31T10:15:12;3.58;;;2.10;;
51780;SDS011;37844;57.126;24.288;2023-08-31T10:17:56;3.10;;;1.88;;
51780;SDS011;37844;57.126;24.288;2023-08-31T10:20:43;4.15;;;2.05;;
51780;SDS011;37844;57.126;24.288;2023-08-31T10:23:27;3.88;;;2.03;;
51780;SDS011;37844;57.126;24.288;2023-08-31T10:26:12;3.10;;;2.10;;
51780;SDS011;37844;57.126;24.288;2023-08-31T10:29:06;3.35;;;2.15;;
51780;SDS011;37844;57.126;24.288;2023-08-31T10:31:50;4.53;;;2.40;;
51780;SDS011;37844;57.126;24.288;2023-08-31T10:34:34;2.67;;;1.83;;
51780;SDS011;37844;57.126;24.288;2023-08-31T10:37:20;4.03;;;2.45;;
51780;SDS011;37844;57.126;24.288;2023-08-31T10:40:10;2.80;;;1.90;;
51780;SDS011;37844;57.126;24.288;2023-08-31T10:43:13;4.30;;;1.95;;
51780;SDS011;37844;57.126;24.288;2023-08-31T10:45:59;7.00;;;2.03;;
51780;SDS011;37844;57.126;24.288;2023-08-31T10:48:50;3.53;;;2.53;;
51780;SDS011;37844;57.126;24.288;2023-08-31T10:51:42;3.30;;;1.98;;
51780;SDS011;37844;57.126;24.288;2023-08-31T10:54:31;4.53;;;2.17;;
51780;SDS011;37844;57.126;24.288;2023-08-31T10:57:19;3.13;;;1.88;;
51780;SDS011;37844;57.126;24.288;2023-08-31T11:00:13;3.75;;;1.98;;
51780;SDS011;37844;57.126;24.288;2023-08-31T11:03:17;3.45;;;1.88;;
51780;SDS011;37844;57.126;24.288;2023-08-31T11:06:02;1.45;;;1.23;;
51780;SDS011;37844;57.126;24.288;2023-08-31T11:08:46;3.60;;;1.95;;
51780;SDS011;37844;57.126;24.288;2023-08-31T11:11:37;3.90;;;1.58;;
51780;SDS011;37844;57.126;24.288;2023-08-31T11:14:22;3.28;;;2.00;;
51780;SDS011;37844;57.126;24.288;2023-08-31T11:17:06;2.10;;;1.48;;
51780;SDS011;37844;57.126;24.288;2023-08-31T11:19:51;2.72;;;1.25;;
51780;SDS011;37844;57.126;24.288;2023-08-31T11:22:38;2.72;;;1.77;;
51780;SDS011;37844;57.126;24.288;2023-08-31T11:25:24;3.70;;;2.50;;
51780;SDS011;37844;57.126;24.288;2023-08-31T11:28:08;3.03;;;1.63;;
51780;SDS011;37844;57.126;24.288;2023-08-31T11:30:52;5.88;;;1.60;;
51780;SDS011;37844;57.126;24.288;2023-08-31T11:33:36;3.88;;;1.65;;
51780;SDS011;37844;57.126;24.288;2023-08-31T11:36:21;3.95;;;1.85;;
51780;SDS011;37844;57.126;24.288;2023-08-31T11:39:06;1.92;;;1.67;;
51780;SDS011;37844;57.126;24.288;2023-08-31T11:41:50;4.68;;;2.00;;
51780;SDS011;37844;57.126;24.288;2023-08-31T11:44:35;4.13;;;2.05;;
51780;SDS011;37844;57.126;24.288;2023-08-31T11:47:19;2.53;;;1.75;;
51780;SDS011;37844;57.126;24.288;2023-08-31T11:50:04;4.72;;;1.92;;
51780;SDS011;37844;57.126;24.288;2023-08-31T11:52:50;1.92;;;1.38;;
51780;SDS011;37844;57.126;24.288;2023-08-31T11:55:37;4.07;;;1.98;;
51780;SDS011;37844;57.126;24.288;2023-08-31T11:58:39;1.67;;;1.55;;
51780;SDS011;37844;57.126;24.288;2023-08-31T12:01:24;4.72;;;1.92;;
51780;SDS011;37844;57.126;24.288;2023-08-31T12:04:26;5.78;;;3.17;;
51780;SDS011;37844;57.126;24.288;2023-08-31T12:07:11;3.67;;;2.63;;
51780;SDS011;37844;57.126;24.288;2023-08-31T12:10:03;7.68;;;3.47;;
51780;SDS011;37844;57.126;24.288;2023-08-31T12:12:47;13.85;;;4.15;;
51780;SDS011;37844;57.126;24.288;2023-08-31T12:15:31;7.25;;;4.22;;
51780;SDS011;37844;57.126;24.288;2023-08-31T12:18:15;6.47;;;4.32;;
51780;SDS011;37844;57.126;24.288;2023-08-31T12:20:59;7.13;;;3.88;;
51780;SDS011;37844;57.126;24.288;2023-08-31T12:23:43;5.40;;;3.33;;
51780;SDS011;37844;57.126;24.288;2023-08-31T12:26:27;7.43;;;3.85;;
51780;SDS011;37844;57.126;24.288;2023-08-31T12:29:12;5.65;;;2.95;;
51780;SDS011;37844;57.126;24.288;2023-08-31T12:31:56;6.75;;;3.22;;
51780;SDS011;37844;57.126;24.288;2023-08-31T12:34:41;4.95;;;2.58;;
51780;SDS011;37844;57.126;24.288;2023-08-31T12:37:25;3.92;;;2.58;;
51780;SDS011;37844;57.126;24.288;2023-08-31T12:40:09;7.93;;;2.72;;
51780;SDS011;37844;57.126;24.288;2023-08-31T12:42:54;2.53;;;2.00;;
51780;SDS011;37844;57.126;24.288;2023-08-31T12:45:38;3.80;;;2.40;;
51780;SDS011;37844;57.126;24.288;2023-08-31T12:48:22;2.95;;;1.98;;
51780;SDS011;37844;57.126;24.288;2023-08-31T12:51:07;3.20;;;2.10;;
51780;SDS011;37844;57.126;24.288;2023-08-31T12:53:51;3.28;;;2.20;;
51780;SDS011;37844;57.126;24.288;2023-08-31T12:56:35;3.00;;;2.03;;
51780;SDS011;37844;57.126;24.288;2023-08-31T12:59:18;6.32;;;2.38;;
51780;SDS011;37844;57.126;24.288;2023-08-31T13:02:02;4.43;;;2.20;;
51780;SDS011;37844;57.126;24.288;2023-08-31T13:04:50;3.53;;;2.03;;
51780;SDS011;37844;57.126;24.288;2023-08-31T13:07:36;3.75;;;2.22;;
51780;SDS011;37844;57.126;24.288;2023-08-31T13:10:21;8.77;;;3.85;;
51780;SDS011;37844;57.126;24.288;2023-08-31T13:13:05;4.60;;;2.53;;
51780;SDS011;37844;57.126;24.288;2023-08-31T13:15:49;5.88;;;2.35;;
51780;SDS011;37844;57.126;24.288;2023-08-31T13:18:33;5.72;;;2.35;;
51780;SDS011;37844;57.126;24.288;2023-08-31T13:21:17;4.68;;;2.53;;
51780;SDS011;37844;57.126;24.288;2023-08-31T13:24:01;5.43;;;2.63;;
51780;SDS011;37844;57.126;24.288;2023-08-31T13:26:45;3.95;;;2.28;;
51780;SDS011;37844;57.126;24.288;2023-08-31T13:29:31;4.38;;;2.40;;
51780;SDS011;37844;57.126;24.288;2023-08-31T13:32:15;6.15;;;2.00;;
51780;SDS011;37844;57.126;24.288;2023-08-31T13:34:59;5.78;;;2.42;;
51780;SDS011;37844;57.126;24.288;2023-08-31T13:37:43;16.60;;;5.57;;
51780;SDS011;37844;57.126;24.288;2023-08-31T13:40:27;17.95;;;4.97;;
51780;SDS011;37844;57.126;24.288;2023-08-31T13:43:11;9.43;;;4.47;;
51780;SDS011;37844;57.126;24.288;2023-08-31T13:45:55;5.22;;;2.83;;
51780;SDS011;37844;57.126;24.288;2023-08-31T13:48:39;4.97;;;2.33;;
51780;SDS011;37844;57.126;24.288;2023-08-31T13:51:38;3.40;;;2.08;;
51780;SDS011;37844;57.126;24.288;2023-08-31T13:54:29;3.38;;;2.25;;
51780;SDS011;37844;57.126;24.288;2023-08-31T13:57:13;4.90;;;1.90;;
51780;SDS011;37844;57.126;24.288;2023-08-31T14:00:01;5.90;;;2.83;;
51780;SDS011;37844;57.126;24.288;2023-08-31T14:02:45;8.02;;;3.10;;
51780;SDS011;37844;57.126;24.288;2023-08-31T14:05:29;8.77;;;2.17;;
51780;SDS011;37844;57.126;24.288;2023-08-31T14:08:13;5.93;;;2.53;;
51780;SDS011;37844;57.126;24.288;2023-08-31T14:10:57;3.63;;;2.10;;
51780;SDS011;37844;57.126;24.288;2023-08-31T14:13:42;6.20;;;2.33;;
51780;SDS011;37844;57.126;24.288;2023-08-31T14:16:27;3.60;;;2.20;;
51780;SDS011;37844;57.126;24.288;2023-08-31T14:19:12;5.25;;;1.58;;
51780;SDS011;37844;57.126;24.288;2023-08-31T14:21:55;4.75;;;2.40;;
51780;SDS011;37844;57.126;24.288;2023-08-31T14:24:40;7.50;;;3.00;;
51780;SDS011;37844;57.126;24.288;2023-08-31T14:27:24;7.90;;;2.53;;
51780;SDS011;37844;57.126;24.288;2023-08-31T14:30:08;5.65;;;2.42;;
51780;SDS011;37844;57.126;24.288;2023-08-31T14:32:52;3.55;;;2.35;;
51780;SDS011;37844;57.126;24.288;2023-08-31T14:35:37;3.53;;;2.33;;
51780;SDS011;37844;57.126;24.288;2023-08-31T14:38:23;5.68;;;2.35;;
51780;SDS011;37844;57.126;24.288;2023-08-31T14:41:07;3.80;;;2.00;;
51780;SDS011;37844;57.126;24.288;2023-08-31T14:43:51;3.35;;;2.20;;
51780;SDS011;37844;57.126;24.288;2023-08-31T14:46:35;2.42;;;2.00;;
51780;SDS011;37844;57.126;24.288;2023-08-31T14:49:21;3.03;;;2.25;;
51780;SDS011;37844;57.126;24.288;2023-08-31T14:52:08;8.20;;;3.15;;
51780;SDS011;37844;57.126;24.288;2023-08-31T14:54:52;6.90;;;2.97;;
51780;SDS011;37844;57.126;24.288;2023-08-31T14:57:36;14.13;;;4.93;;
51780;SDS011;37844;57.126;24.288;2023-08-31T15:00:20;13.27;;;5.35;;
51780;SDS011;37844;57.126;24.288;2023-08-31T15:03:05;8.60;;;3.67;;
51780;SDS011;37844;57.126;24.288;2023-08-31T15:05:49;5.03;;;2.55;;
51780;SDS011;37844;57.126;24.288;2023-08-31T15:08:38;7.20;;;2.38;;
51780;SDS011;37844;57.126;24.288;2023-08-31T15:11:23;3.88;;;2.40;;
51780;SDS011;37844;57.126;24.288;2023-08-31T15:14:09;2.92;;;2.05;;
51780;SDS011;37844;57.126;24.288;2023-08-31T15:16:54;3.92;;;2.35;;
51780;SDS011;37844;57.126;24.288;2023-08-31T15:19:38;4.28;;;2.28;;
51780;SDS011;37844;57.126;24.288;2023-08-31T15:22:22;18.33;;;5.18;;
51780;SDS011;37844;57.126;24.288;2023-08-31T15:25:06;16.23;;;4.68;;
51780;SDS011;37844;57.126;24.288;2023-08-31T15:27:51;8.02;;;2.92;;
51780;SDS011;37844;57.126;24.288;2023-08-31T15:30:36;6.30;;;2.03;;
51780;SDS011;37844;57.126;24.288;2023-08-31T15:33:20;7.72;;;2.95;;
51780;SDS011;37844;57.126;24.288;2023-08-31T15:36:07;24.45;;;5.85;;
51780;SDS011;37844;57.126;24.288;2023-08-31T15:38:52;14.32;;;4.32;;
51780;SDS011;37844;57.126;24.288;2023-08-31T15:41:36;15.30;;;5.43;;
51780;SDS011;37844;57.126;24.288;2023-08-31T15:44:21;14.90;;;4.35;;
51780;SDS011;37844;57.126;24.288;2023-08-31T15:47:04;20.17;;;6.10;;
51780;SDS011;37844;57.126;24.288;2023-08-31T15:49:52;16.65;;;6.65;;
51780;SDS011;37844;57.126;24.288;2023-08-31T15:52:36;31.48;;;6.70;;
51780;SDS011;37844;57.126;24.288;2023-08-31T15:55:21;26.30;;;5.97;;
51780;SDS011;37844;57.126;24.288;2023-08-31T15:58:06;18.80;;;6.07;;
51780;SDS011;37844;57.126;24.288;2023-08-31T16:00:51;32.50;;;7.57;;
51780;SDS011;37844;57.126;24.288;2023-08-31T16:03:35;25.27;;;5.80;;
51780;SDS011;37844;57.126;24.288;2023-08-31T16:06:20;23.17;;;6.63;;
51780;SDS011;37844;57.126;24.288;2023-08-31T16:09:04;18.90;;;6.55;;
51780;SDS011;37844;57.126;24.288;2023-08-31T16:11:49;30.77;;;6.18;;
51780;SDS011;37844;57.126;24.288;2023-08-31T16:14:33;20.73;;;4.78;;
51780;SDS011;37844;57.126;24.288;2023-08-31T16:17:17;20.58;;;5.93;;
51780;SDS011;37844;57.126;24.288;2023-08-31T16:20:02;20.95;;;5.00;;
51780;SDS011;37844;57.126;24.288;2023-08-31T16:22:48;17.98;;;5.57;;
51780;SDS011;37844;57.126;24.288;2023-08-31T16:25:32;13.57;;;5.82;;